createdAt,value
2023-04-01T00:01:43.648Z,7.80
2023-04-01T00:04:10.604Z,7.80
2023-04-01T00:06:37.704Z,7.80
2023-04-01T00:09:04.667Z,7.80
2023-04-01T00:11:33.357Z,7.80
2023-04-01T00:14:00.580Z,7.80
2023-04-01T00:16:27.545Z,7.80
2023-04-01T00:18:54.621Z,7.70
2023-04-01T00:21:23.024Z,7.80
2023-04-01T00:23:51.063Z,7.80
2023-04-01T00:26:20.226Z,7.70
2023-04-01T00:28:47.863Z,7.80
2023-04-01T00:31:15.604Z,7.70
2023-04-01T00:33:42.809Z,7.70
2023-04-01T00:36:12.046Z,7.80
2023-04-01T00:38:39.212Z,7.70
2023-04-01T00:41:06.612Z,7.70
2023-04-01T00:43:33.946Z,7.70
2023-04-01T00:46:01.166Z,7.70
2023-04-01T00:48:31.604Z,7.70
2023-04-01T00:51:01.633Z,7.70
2023-04-01T00:53:29.075Z,7.70
2023-04-01T00:56:05.780Z,7.70
2023-04-01T00:58:36.179Z,7.80
2023-04-01T01:01:03.197Z,7.70
2023-04-01T01:03:30.335Z,7.70
2023-04-01T01:06:09.695Z,7.70
2023-04-01T01:08:56.662Z,7.60
2023-04-01T01:11:26.671Z,7.60
2023-04-01T01:14:06.700Z,7.60
2023-04-01T01:16:37.354Z,7.60
2023-04-01T01:19:30.936Z,7.60
2023-04-01T01:21:58.178Z,7.60
2023-04-01T01:24:31.401Z,7.60
2023-04-01T01:27:02.677Z,7.60
2023-04-01T01:29:36.242Z,7.60
2023-04-01T01:32:16.187Z,7.60
2023-04-01T01:35:01.856Z,7.60
2023-04-01T01:37:30.943Z,7.60
2023-04-01T01:40:01.191Z,7.60
2023-04-01T01:42:31.228Z,7.60
2023-04-01T01:45:00.561Z,7.60
2023-04-01T01:47:28.818Z,7.50
2023-04-01T01:49:56.905Z,7.50
2023-04-01T01:52:24.170Z,7.50
2023-04-01T01:54:52.783Z,7.50
2023-04-01T01:57:24.558Z,7.50
2023-04-01T01:59:55.621Z,7.50
2023-04-01T02:02:27.048Z,7.50
2023-04-01T02:04:54.221Z,7.50
2023-04-01T02:07:23.076Z,7.50
2023-04-01T02:09:51.536Z,7.40
2023-04-01T02:12:20.070Z,7.40
2023-04-01T02:15:03.992Z,7.40
2023-04-01T02:17:32.255Z,7.40
2023-04-01T02:20:01.307Z,7.40
2023-04-01T02:22:34.713Z,7.40
2023-04-01T02:25:04.414Z,7.30
2023-04-01T02:27:31.821Z,7.30
2023-04-01T02:29:59.233Z,7.30
2023-04-01T02:32:26.430Z,7.30
2023-04-01T02:34:54.478Z,7.30
2023-04-01T02:37:21.925Z,7.30
2023-04-01T02:39:48.829Z,7.20
2023-04-01T02:42:15.744Z,7.20
2023-04-01T02:44:42.595Z,7.20
2023-04-01T02:47:09.598Z,7.20
2023-04-01T02:49:36.620Z,7.20
2023-04-01T02:52:03.620Z,7.20
2023-04-01T02:54:30.696Z,7.20
2023-04-01T02:56:57.620Z,7.20
2023-04-01T02:59:24.633Z,7.20
2023-04-01T03:01:51.489Z,7.20
2023-04-01T03:04:18.408Z,7.20
2023-04-01T03:06:45.324Z,7.10
2023-04-01T03:09:12.504Z,7.10
2023-04-01T03:11:39.377Z,7.10
2023-04-01T03:14:08.068Z,7.10
2023-04-01T03:16:34.987Z,7.10
2023-04-01T03:19:03.294Z,7.10
2023-04-01T03:21:30.561Z,7.00
2023-04-01T03:23:57.510Z,7.10
2023-04-01T03:26:24.396Z,7.10
2023-04-01T03:28:51.418Z,7.10
2023-04-01T03:31:18.404Z,7.10
2023-04-01T03:33:51.702Z,7.10
2023-04-01T03:36:19.239Z,7.10
2023-04-01T03:38:47.232Z,7.00
2023-04-01T03:41:19.658Z,7.00
2023-04-01T03:43:46.920Z,7.00
2023-04-01T03:46:17.995Z,7.00
2023-04-01T03:48:44.975Z,7.00
2023-04-01T03:51:11.870Z,7.00
2023-04-01T03:53:38.793Z,6.90
2023-04-01T03:56:07.424Z,6.90
2023-04-01T03:58:36.725Z,6.90
2023-04-01T04:01:13.744Z,6.90
2023-04-01T04:03:40.991Z,6.90
2023-04-01T04:06:11.618Z,6.90
2023-04-01T04:08:39.203Z,6.80
2023-04-01T04:11:06.166Z,6.90
2023-04-01T04:13:33.802Z,6.80
2023-04-01T04:16:02.102Z,6.80
2023-04-01T04:18:30.448Z,6.80
2023-04-01T04:20:57.416Z,6.80
2023-04-01T04:23:25.787Z,6.80
2023-04-01T04:26:00.220Z,6.80
2023-04-01T04:28:29.210Z,6.80
2023-04-01T04:30:58.408Z,6.80
2023-04-01T04:33:25.533Z,6.80
2023-04-01T04:35:53.054Z,6.80
2023-04-01T04:38:20.160Z,6.70
2023-04-01T04:40:47.207Z,6.70
2023-04-01T04:43:15.139Z,6.70
2023-04-01T04:45:42.827Z,6.70
2023-04-01T04:48:12.105Z,6.70
2023-04-01T04:50:41.116Z,6.70
2023-04-01T04:53:10.388Z,6.70
2023-04-01T04:55:37.239Z,6.70
2023-04-01T04:58:19.994Z,6.70
2023-04-01T05:00:47.357Z,6.70
2023-04-01T05:03:21.468Z,6.60
2023-04-01T05:05:49.686Z,6.60
2023-04-01T05:08:16.585Z,6.60
2023-04-01T05:10:43.472Z,6.60
2023-04-01T05:13:10.833Z,6.60
2023-04-01T05:15:38.483Z,6.60
2023-04-01T05:18:05.608Z,6.60
2023-04-01T05:20:32.755Z,6.60
2023-04-01T05:23:00.376Z,6.50
2023-04-01T05:25:27.307Z,6.50
2023-04-01T05:27:54.844Z,6.50
2023-04-01T05:30:21.981Z,6.50
2023-04-01T05:33:04.002Z,6.50
2023-04-01T05:35:31.182Z,6.50
2023-04-01T05:37:58.404Z,6.50
2023-04-01T05:40:25.447Z,6.40
2023-04-01T05:42:52.692Z,6.40
2023-04-01T05:45:19.554Z,6.40
2023-04-01T05:48:06.886Z,6.40
2023-04-01T05:50:40.837Z,6.40
2023-04-01T05:53:07.754Z,6.40
2023-04-01T05:55:36.212Z,6.40
2023-04-01T05:58:03.732Z,6.40
2023-04-01T06:00:31.306Z,6.40
2023-04-01T06:03:01.072Z,6.40
2023-04-01T06:05:29.964Z,6.40
2023-04-01T06:08:00.342Z,6.40
2023-04-01T06:10:47.563Z,6.40
2023-04-01T06:13:22.633Z,6.40
2023-04-01T06:15:59.264Z,6.40
2023-04-01T06:18:26.281Z,6.40
2023-04-01T06:20:56.157Z,6.40
2023-04-01T06:23:23.280Z,6.40
2023-04-01T06:26:03.434Z,6.40
2023-04-01T06:28:47.266Z,6.40
2023-04-01T06:31:32.937Z,6.40
2023-04-01T06:34:12.298Z,6.40
2023-04-01T06:36:48.663Z,6.40
2023-04-01T06:39:17.636Z,6.50
2023-04-01T06:42:03.044Z,6.50
2023-04-01T06:44:38.070Z,6.50
2023-04-01T06:47:30.230Z,6.50
2023-04-01T06:50:24.427Z,6.50
2023-04-01T06:53:22.173Z,6.50
2023-04-01T06:56:11.084Z,6.50
2023-04-01T06:58:51.098Z,6.60
2023-04-01T07:01:22.011Z,6.60
2023-04-01T07:03:52.647Z,6.60
2023-04-01T07:06:52.560Z,6.60
2023-04-01T07:09:21.880Z,6.60
2023-04-01T07:12:12.358Z,6.70
2023-04-01T07:14:59.400Z,6.70
2023-04-01T07:17:28.735Z,6.70
2023-04-01T07:19:58.698Z,6.70
2023-04-01T07:22:33.190Z,6.70
2023-04-01T07:25:21.848Z,6.80
2023-04-01T07:28:02.033Z,6.80
2023-04-01T07:30:34.081Z,6.80
2023-04-01T07:33:10.684Z,6.80
2023-04-01T07:35:42.535Z,6.80
2023-04-01T07:38:34.899Z,6.80
2023-04-01T07:41:27.981Z,6.90
2023-04-01T07:44:07.168Z,6.90
2023-04-01T07:47:09.936Z,7.00
2023-04-01T07:49:37.083Z,7.00
2023-04-01T07:52:07.453Z,7.10
2023-04-01T07:54:54.540Z,7.10
2023-04-01T07:57:24.828Z,7.10
2023-04-01T07:59:54.863Z,7.20
2023-04-01T08:02:50.468Z,7.20
2023-04-01T08:05:27.132Z,7.20
2023-04-01T08:08:01.479Z,7.20
2023-04-01T08:10:47.137Z,7.20
2023-04-01T08:13:39.845Z,7.30
2023-04-01T08:16:32.622Z,7.30
2023-04-01T08:19:08.194Z,7.30
2023-04-01T08:21:39.896Z,7.30
2023-04-01T08:24:12.537Z,7.30
2023-04-01T08:26:46.087Z,7.30
2023-04-01T08:29:14.977Z,7.30
2023-04-01T08:31:47.194Z,7.30
2023-04-01T08:34:43.691Z,7.30
2023-04-01T08:37:25.340Z,7.30
2023-04-01T08:39:57.146Z,7.40
2023-04-01T08:42:42.993Z,7.40
2023-04-01T08:45:25.040Z,7.40
2023-04-01T08:48:02.471Z,7.40
2023-04-01T08:50:36.749Z,7.40
2023-04-01T08:53:18.815Z,7.40
2023-04-01T08:56:09.062Z,7.40
2023-04-01T08:58:54.983Z,7.40
2023-04-01T09:01:40.841Z,7.40
2023-04-01T09:04:26.177Z,7.50
2023-04-01T09:07:12.851Z,7.50
2023-04-01T09:09:49.498Z,7.50
2023-04-01T09:12:28.846Z,7.50
2023-04-01T09:14:57.861Z,7.40
2023-04-01T09:17:50.923Z,7.40
2023-04-01T09:20:34.696Z,7.40
2023-04-01T09:23:22.122Z,7.40
2023-04-01T09:26:01.730Z,7.30
2023-04-01T09:28:28.594Z,7.30
2023-04-01T09:31:11.234Z,7.40
2023-04-01T09:34:08.472Z,7.50
2023-04-01T09:37:01.036Z,7.70
2023-04-01T09:39:31.644Z,8.00
2023-04-01T09:42:01.745Z,8.40
2023-04-01T09:44:57.532Z,8.60
2023-04-01T09:47:41.289Z,8.80
2023-04-01T09:50:17.440Z,8.80
2023-04-01T09:53:02.832Z,8.70
2023-04-01T09:55:54.356Z,8.60
2023-04-01T09:58:56.825Z,8.50
2023-04-01T10:01:45.368Z,8.50
2023-04-01T10:04:36.491Z,8.50
2023-04-01T10:07:03.418Z,8.40
2023-04-01T10:09:51.399Z,8.40
2023-04-01T10:12:37.032Z,8.40
2023-04-01T10:15:19.281Z,8.40
2023-04-01T10:17:52.510Z,8.40
2023-04-01T10:20:19.507Z,8.50
2023-04-01T10:23:06.083Z,8.60
2023-04-01T10:25:53.502Z,8.70
2023-04-01T10:28:41.184Z,8.80
2023-04-01T10:31:26.734Z,8.90
2023-04-01T10:34:12.751Z,8.90
2023-04-01T10:36:49.374Z,8.80
2023-04-01T10:39:33.082Z,8.80
2023-04-01T10:42:16.628Z,8.80
2023-04-01T10:45:05.080Z,8.70
2023-04-01T10:47:57.846Z,8.70
2023-04-01T10:50:43.368Z,8.60
2023-04-01T10:53:34.678Z,8.60
2023-04-01T10:56:37.402Z,8.60
2023-04-01T10:59:51.249Z,8.60
2023-04-01T11:02:36.826Z,8.60
2023-04-01T11:05:10.969Z,8.60
2023-04-01T11:08:05.382Z,8.60
2023-04-01T11:10:51.125Z,8.60
2023-04-01T11:13:22.485Z,8.60
2023-04-01T11:16:21.797Z,8.50
2023-04-01T11:19:00.780Z,8.50
2023-04-01T11:21:46.228Z,8.50
2023-04-01T11:24:16.880Z,8.50
2023-04-01T11:27:07.097Z,8.50
2023-04-01T11:30:01.957Z,8.50
2023-04-01T11:32:41.437Z,8.60
2023-04-01T11:35:18.087Z,8.70
2023-04-01T11:38:08.129Z,8.70
2023-04-01T11:41:05.915Z,8.80
2023-04-01T11:44:11.128Z,8.80
2023-04-01T11:46:48.333Z,8.90
2023-04-01T11:49:21.638Z,8.90
2023-04-01T11:52:10.469Z,8.90
2023-04-01T11:54:44.958Z,8.80
2023-04-01T11:57:24.040Z,8.80
2023-04-01T11:59:51.093Z,8.80
2023-04-01T12:02:26.553Z,8.80
2023-04-01T12:05:09.227Z,8.80
2023-04-01T12:07:54.974Z,8.80
2023-04-01T12:10:26.456Z,8.80
2023-04-01T12:13:13.814Z,8.80
2023-04-01T12:15:52.646Z,8.70
2023-04-01T12:18:32.536Z,8.70
2023-04-01T12:21:18.335Z,8.70
2023-04-01T12:23:48.697Z,8.70
2023-04-01T12:26:18.666Z,8.70
2023-04-01T12:28:45.540Z,8.60
2023-04-01T12:31:18.978Z,8.60
2023-04-01T12:34:04.736Z,8.60
2023-04-01T12:36:34.687Z,8.70
2023-04-01T12:39:20.104Z,8.70
2023-04-01T12:41:53.302Z,8.80
2023-04-01T12:44:46.563Z,8.90
2023-04-01T12:47:13.542Z,8.90
2023-04-01T12:49:52.234Z,8.90
2023-04-01T12:52:30.040Z,8.90
2023-04-01T12:55:09.450Z,8.90
2023-04-01T12:57:36.381Z,8.90
2023-04-01T13:00:09.477Z,8.80
2023-04-01T13:02:48.515Z,8.80
2023-04-01T13:05:15.540Z,8.80
2023-04-01T13:07:42.414Z,8.80
2023-04-01T13:10:27.512Z,8.80
2023-04-01T13:13:00.633Z,8.80
2023-04-01T13:15:31.284Z,8.90
2023-04-01T13:17:58.229Z,8.90
2023-04-01T13:20:28.310Z,8.90
2023-04-01T13:23:10.253Z,9.00
2023-04-01T13:25:39.854Z,9.00
2023-04-01T13:28:11.591Z,9.00
2023-04-01T13:30:44.259Z,9.10
2023-04-01T13:33:37.571Z,9.10
2023-04-01T13:36:22.928Z,9.20
2023-04-01T13:39:08.825Z,9.20
2023-04-01T13:41:41.737Z,9.30
2023-04-01T13:44:24.152Z,9.30
2023-04-01T13:47:02.926Z,9.40
2023-04-01T13:49:48.186Z,9.30
2023-04-01T13:52:18.720Z,9.30
2023-04-01T13:54:48.572Z,9.20
2023-04-01T13:57:24.340Z,9.20
2023-04-01T13:59:51.282Z,9.20
2023-04-01T14:02:18.082Z,9.10
2023-04-01T14:04:44.887Z,9.10
2023-04-01T14:07:11.727Z,9.10
2023-04-01T14:09:57.070Z,9.10
2023-04-01T14:12:47.490Z,9.10
2023-04-01T14:15:33.540Z,9.10
2023-04-01T14:18:00.786Z,9.10
2023-04-01T14:20:30.328Z,9.10
2023-04-01T14:23:00.351Z,9.10
2023-04-01T14:25:27.942Z,9.10
2023-04-01T14:28:06.254Z,9.10
2023-04-01T14:30:39.305Z,9.10
2023-04-01T14:33:06.332Z,9.10
2023-04-01T14:35:36.588Z,9.10
2023-04-01T14:38:23.728Z,9.10
2023-04-01T14:40:56.543Z,9.10
2023-04-01T14:43:36.995Z,9.10
2023-04-01T14:46:31.617Z,9.10
2023-04-01T14:49:00.812Z,9.20
2023-04-01T14:51:39.587Z,9.20
2023-04-01T14:54:29.742Z,9.30
2023-04-01T14:57:13.348Z,9.30
2023-04-01T14:59:41.800Z,9.30
2023-04-01T15:02:11.664Z,9.40
2023-04-01T15:04:57.512Z,9.30
2023-04-01T15:07:30.813Z,9.30
2023-04-01T15:10:20.889Z,9.40
2023-04-01T15:12:57.478Z,9.40
2023-04-01T15:15:44.674Z,9.30
2023-04-01T15:18:30.003Z,9.30
2023-04-01T15:21:13.248Z,9.30
2023-04-01T15:23:49.376Z,9.30
2023-04-01T15:26:34.701Z,9.30
2023-04-01T15:29:19.998Z,9.30
2023-04-01T15:32:05.403Z,9.30
2023-04-01T15:34:35.349Z,9.40
2023-04-01T15:37:11.155Z,9.40
2023-04-01T15:39:41.354Z,9.30
2023-04-01T15:42:31.257Z,9.40
2023-04-01T15:45:10.488Z,9.40
2023-04-01T15:47:46.793Z,9.40
2023-04-01T15:50:32.271Z,9.40
2023-04-01T15:53:04.432Z,9.40
2023-04-01T15:55:46.099Z,9.40
2023-04-01T15:58:23.529Z,9.40
2023-04-01T16:01:05.961Z,9.40
2023-04-01T16:03:42.594Z,9.30
2023-04-01T16:06:14.889Z,9.40
2023-04-01T16:08:41.785Z,9.30
2023-04-01T16:11:11.639Z,9.30
2023-04-01T16:13:47.462Z,9.30
2023-04-01T16:16:26.261Z,9.40
2023-04-01T16:18:53.213Z,9.40
2023-04-01T16:21:36.840Z,9.30
2023-04-01T16:24:19.326Z,9.30
2023-04-01T16:26:53.952Z,9.30
2023-04-01T16:29:25.969Z,9.30
2023-04-01T16:32:16.749Z,9.30
2023-04-01T16:34:59.296Z,9.40
2023-04-01T16:37:46.806Z,9.40
2023-04-01T16:40:14.359Z,9.30
2023-04-01T16:42:47.748Z,9.30
2023-04-01T16:45:30.045Z,9.30
2023-04-01T16:48:14.484Z,9.30
2023-04-01T16:50:48.396Z,9.30
2023-04-01T16:53:16.927Z,9.30
2023-04-01T16:56:01.866Z,9.20
2023-04-01T16:58:43.278Z,9.20
2023-04-01T17:01:10.204Z,9.20
2023-04-01T17:03:43.534Z,9.20
2023-04-01T17:06:30.587Z,9.20
2023-04-01T17:09:07.959Z,9.10
2023-04-01T17:11:40.553Z,9.10
2023-04-01T17:14:10.699Z,9.10
2023-04-01T17:16:56.542Z,9.10
2023-04-01T17:19:41.907Z,9.00
2023-04-01T17:22:44.381Z,9.00
2023-04-01T17:25:26.497Z,8.90
2023-04-01T17:27:54.082Z,8.90
2023-04-01T17:30:34.468Z,8.90
2023-04-01T17:33:07.947Z,8.90
2023-04-01T17:35:49.134Z,8.90
2023-04-01T17:38:19.112Z,8.90
2023-04-01T17:41:02.975Z,8.90
2023-04-01T17:43:39.811Z,8.90
2023-04-01T17:46:25.316Z,8.90
2023-04-01T17:49:01.958Z,8.90
2023-04-01T17:51:31.586Z,8.80
2023-04-01T17:54:08.233Z,8.80
2023-04-01T17:56:47.655Z,8.80
2023-04-01T17:59:21.992Z,8.70
2023-04-01T18:02:14.985Z,8.70
2023-04-01T18:04:48.958Z,8.70
2023-04-01T18:07:19.027Z,8.70
2023-04-01T18:09:45.921Z,8.60
2023-04-01T18:12:12.768Z,8.70
2023-04-01T18:14:42.670Z,8.60
2023-04-01T18:17:18.925Z,8.60
2023-04-01T18:19:54.979Z,8.70
2023-04-01T18:22:30.815Z,8.70
2023-04-01T18:24:57.846Z,8.80
2023-04-01T18:27:24.672Z,8.70
2023-04-01T18:29:56.166Z,8.80
2023-04-01T18:32:49.467Z,8.80
2023-04-01T18:35:17.192Z,8.70
2023-04-01T18:37:51.897Z,8.70
2023-04-01T18:40:29.673Z,8.70
2023-04-01T18:43:01.586Z,8.70
2023-04-01T18:45:41.492Z,8.60
2023-04-01T18:48:27.120Z,8.60
2023-04-01T18:50:59.121Z,8.60
2023-04-01T18:53:35.625Z,8.50
2023-04-01T18:56:03.901Z,8.50
2023-04-01T18:58:46.031Z,8.50
2023-04-01T19:01:39.264Z,8.40
2023-04-01T19:04:11.969Z,8.40
2023-04-01T19:06:48.665Z,8.40
2023-04-01T19:16:12.469Z,8.30
2023-04-01T19:18:54.992Z,8.30
2023-04-01T19:21:31.499Z,8.30
2023-04-01T19:24:22.550Z,8.30
2023-04-01T19:26:54.047Z,8.30
2023-04-01T19:29:30.370Z,8.30
2023-04-01T19:32:04.606Z,8.40
2023-04-01T19:34:46.785Z,8.30
2023-04-01T19:37:32.386Z,8.30
2023-04-01T19:39:59.266Z,8.30
2023-04-01T19:42:32.848Z,8.30
2023-04-01T19:45:06.000Z,8.30
2023-04-01T19:47:35.992Z,8.30
2023-04-01T19:50:02.836Z,8.30
2023-04-01T19:52:41.352Z,8.30
2023-04-01T19:55:11.190Z,8.30
2023-04-01T19:57:51.576Z,8.30
2023-04-01T20:00:34.440Z,8.30
2023-04-01T20:03:05.934Z,8.30
2023-04-01T20:05:41.887Z,8.30
2023-04-01T20:08:09.844Z,8.30
2023-04-01T20:10:44.116Z,8.30
2023-04-01T20:13:34.419Z,8.30
2023-04-01T20:16:04.509Z,8.30
2023-04-01T20:18:50.573Z,8.30
2023-04-01T20:21:37.773Z,8.20
2023-04-01T20:24:17.043Z,8.20
2023-04-01T20:27:04.189Z,8.20
2023-04-01T20:29:49.974Z,8.20
2023-04-01T20:32:29.446Z,8.20
2023-04-01T20:35:15.058Z,8.20
2023-04-01T20:38:07.106Z,8.20
2023-04-01T20:40:54.027Z,8.20
2023-04-01T20:43:20.931Z,8.10
2023-04-01T20:45:57.054Z,8.10
2023-04-01T20:48:42.157Z,8.10
2023-04-01T20:51:10.046Z,8.10
2023-04-01T20:53:40.685Z,8.10
2023-04-01T20:56:27.155Z,8.10
2023-04-01T20:58:59.350Z,8.00
2023-04-01T21:01:27.418Z,8.00
2023-04-01T21:04:10.565Z,8.00
2023-04-01T21:06:44.696Z,8.00
2023-04-01T21:09:21.891Z,8.00
2023-04-01T21:11:58.066Z,8.00
2023-04-01T21:14:34.097Z,8.00
2023-04-01T21:17:18.802Z,8.00
2023-04-01T21:19:45.837Z,7.90
2023-04-01T21:22:23.371Z,7.90
2023-04-01T21:24:50.521Z,7.90
2023-04-01T21:27:24.106Z,7.90
2023-04-01T21:29:57.201Z,7.90
2023-04-01T21:32:25.049Z,7.90
2023-04-01T21:35:10.724Z,7.90
2023-04-01T21:37:56.990Z,7.90
2023-04-01T21:40:28.962Z,7.90
2023-04-01T21:43:28.273Z,7.80
2023-04-01T21:46:04.392Z,7.80
2023-04-01T21:48:46.257Z,7.80
2023-04-01T21:51:45.790Z,7.80
2023-04-01T21:54:23.119Z,7.80
2023-04-01T21:57:09.029Z,7.80
2023-04-01T21:59:35.987Z,7.80
2023-04-01T22:02:21.465Z,7.80
2023-04-01T22:04:59.791Z,7.80
2023-04-01T22:07:34.539Z,7.80
2023-04-01T22:10:01.375Z,7.80
2023-04-01T22:12:34.429Z,7.80
2023-04-01T22:15:13.507Z,7.80
2023-04-01T22:17:40.690Z,7.70
2023-04-01T22:20:16.411Z,7.80
2023-04-01T22:23:09.820Z,7.70
2023-04-01T22:25:39.526Z,7.70
2023-04-01T22:28:08.949Z,7.80
2023-04-01T22:31:02.242Z,7.70
2023-04-01T22:33:38.449Z,7.80
2023-04-01T22:36:24.340Z,7.80
2023-04-01T22:38:56.958Z,7.70
2023-04-01T22:41:32.461Z,7.80
2023-04-01T22:44:00.561Z,7.80
2023-04-01T22:46:35.183Z,7.80
2023-04-01T22:49:06.818Z,7.70
2023-04-01T22:51:41.388Z,7.80
2023-04-01T22:54:16.886Z,7.70
2023-04-01T22:56:47.546Z,7.80
2023-04-01T22:59:17.117Z,7.70
2023-04-01T23:01:46.936Z,7.80
2023-04-01T23:04:17.374Z,7.80
2023-04-01T23:06:47.718Z,7.80
2023-04-01T23:09:14.600Z,7.80
2023-04-01T23:11:44.377Z,7.80
2023-04-01T23:14:20.308Z,7.80
2023-04-01T23:16:54.629Z,7.80
2023-04-01T23:19:36.094Z,7.70
2023-04-01T23:22:12.974Z,7.70
2023-04-01T23:24:45.896Z,7.70
2023-04-01T23:27:15.907Z,7.70
2023-04-01T23:29:43.908Z,7.70
2023-04-01T23:32:18.153Z,7.70
2023-04-01T23:34:50.269Z,7.70
2023-04-01T23:37:18.840Z,7.70
2023-04-01T23:39:53.388Z,7.70
2023-04-01T23:42:21.178Z,7.70
2023-04-01T23:44:49.380Z,7.70
2023-04-01T23:47:21.466Z,7.70
2023-04-01T23:49:58.954Z,7.70
2023-04-01T23:52:27.558Z,7.70
2023-04-01T23:54:58.469Z,7.70
2023-04-01T23:57:28.440Z,7.60
